createdAt,value
2023-05-15T00:00:16.564Z,100318.23
2023-05-15T00:04:04.758Z,100313.77
2023-05-15T00:07:31.668Z,100310.04
2023-05-15T00:11:01.529Z,100303.85
2023-05-15T00:14:30.028Z,100301.11
2023-05-15T00:17:57.971Z,100300.31
2023-05-15T00:21:25.160Z,100294.97
2023-05-15T00:24:55.493Z,100288.05
2023-05-15T00:28:22.709Z,100285.14
2023-05-15T00:32:53.113Z,100281.25
2023-05-15T00:36:21.899Z,100277.37
2023-05-15T00:39:51.565Z,100275.95
2023-05-15T00:43:20.198Z,100270.23
2023-05-15T00:46:48.689Z,100268.17
2023-05-15T00:50:16.291Z,100260.38
2023-05-15T00:53:44.217Z,100257.09
2023-05-15T00:57:11.999Z,100256.80
2023-05-15T01:00:39.725Z,100258.39
2023-05-15T01:04:07.312Z,100252.65
2023-05-15T01:07:38.249Z,100245.28
2023-05-15T01:11:07.327Z,100244.27
2023-05-15T01:14:34.991Z,100240.46
2023-05-15T01:18:02.003Z,100241.45
2023-05-15T01:22:05.820Z,100240.85
2023-05-15T01:25:54.344Z,100246.16
2023-05-15T01:29:28.945Z,100263.23
2023-05-15T01:33:04.453Z,100249.17
2023-05-15T01:36:40.184Z,100246.77
2023-05-15T01:40:10.458Z,100237.98
2023-05-15T01:43:40.744Z,100228.94
2023-05-15T01:47:14.229Z,100235.02
2023-05-15T01:50:45.408Z,100229.33
2023-05-15T01:54:13.046Z,100229.61
2023-05-15T01:57:42.188Z,100220.44
2023-05-15T02:01:09.377Z,100215.45
2023-05-15T02:04:38.034Z,100212.10
2023-05-15T02:08:06.498Z,100207.95
2023-05-15T02:11:33.955Z,100196.31
2023-05-15T02:15:02.666Z,100200.67
2023-05-15T02:18:30.120Z,100184.50
2023-05-15T02:21:57.560Z,100174.39
2023-05-15T02:25:36.120Z,100166.31
2023-05-15T02:29:14.148Z,100167.08
2023-05-15T02:32:52.259Z,100166.86
2023-05-15T02:36:22.389Z,100161.76
2023-05-15T02:39:54.073Z,100156.33
2023-05-15T02:43:22.303Z,100149.74
2023-05-15T02:46:50.215Z,100145.29
2023-05-15T02:50:18.436Z,100144.66
2023-05-15T02:53:45.549Z,100141.38
2023-05-15T02:57:11.978Z,100138.38
2023-05-15T03:00:39.711Z,100130.89
2023-05-15T03:04:07.065Z,100124.64
2023-05-15T03:07:33.948Z,100121.10
2023-05-15T03:11:01.278Z,100122.04
2023-05-15T03:14:31.070Z,100105.83
2023-05-15T03:17:58.116Z,100112.46
2023-05-15T03:21:24.810Z,100110.58
2023-05-15T03:24:51.901Z,100105.75
2023-05-15T03:28:18.792Z,100086.05
2023-05-15T03:31:45.792Z,100077.30
2023-05-15T03:35:14.643Z,100094.75
2023-05-15T03:38:41.545Z,100100.37
2023-05-15T03:42:09.618Z,100065.36
2023-05-15T03:45:37.791Z,100061.35
2023-05-15T03:49:05.141Z,100074.39
2023-05-15T03:52:34.576Z,100062.01
2023-05-15T03:56:01.851Z,100053.91
2023-05-15T03:59:28.683Z,100074.75
2023-05-15T04:02:55.964Z,100068.27
2023-05-15T04:06:23.201Z,100055.67
2023-05-15T04:09:50.497Z,100047.75
2023-05-15T04:13:17.301Z,100049.06
2023-05-15T04:16:44.302Z,100054.41
2023-05-15T04:20:14.545Z,100047.73
2023-05-15T04:23:41.931Z,100044.44
2023-05-15T04:27:09.412Z,100045.19
2023-05-15T04:30:36.380Z,100031.41
2023-05-15T04:34:04.668Z,100043.27
2023-05-15T04:37:32.290Z,100040.33
2023-05-15T04:40:59.899Z,100039.27
2023-05-15T04:44:26.947Z,100042.44
2023-05-15T04:47:53.820Z,100048.21
2023-05-15T04:51:20.485Z,100049.34
2023-05-15T04:54:48.318Z,100036.71
2023-05-15T04:58:15.633Z,100033.47
2023-05-15T05:01:42.638Z,100037.58
2023-05-15T05:05:10.761Z,100047.69
2023-05-15T05:08:37.532Z,100041.73
2023-05-15T05:12:04.561Z,100041.29
2023-05-15T05:15:31.916Z,100016.70
2023-05-15T05:18:58.903Z,100022.92
2023-05-15T05:22:25.523Z,100032.91
2023-05-15T05:25:52.406Z,100023.15
2023-05-15T05:29:19.736Z,100018.80
2023-05-15T05:32:46.728Z,99995.58
2023-05-15T05:36:14.252Z,100002.67
2023-05-15T05:39:41.337Z,100023.05
2023-05-15T05:43:08.310Z,100033.47
2023-05-15T05:46:35.887Z,100039.42
2023-05-15T05:50:07.966Z,100041.89
2023-05-15T05:53:34.761Z,100034.71
2023-05-15T05:57:01.902Z,100039.64
2023-05-15T06:00:29.126Z,100042.33
2023-05-15T06:03:57.796Z,100040.98
2023-05-15T06:07:24.906Z,100030.68
2023-05-15T06:10:51.955Z,100025.73
2023-05-15T06:14:25.575Z,100025.35
2023-05-15T06:17:53.417Z,100021.48
2023-05-15T06:21:20.288Z,100024.61
2023-05-15T06:24:47.118Z,100021.41
2023-05-15T06:28:16.879Z,100026.75
2023-05-15T06:31:46.687Z,100026.56
2023-05-15T06:35:14.259Z,100031.27
2023-05-15T06:38:42.240Z,100027.76
2023-05-15T06:42:09.255Z,100026.76
2023-05-15T06:45:36.128Z,100032.17
2023-05-15T06:49:02.453Z,100030.57
2023-05-15T06:52:30.241Z,100027.92
2023-05-15T06:56:00.729Z,100023.58
2023-05-15T06:59:27.621Z,100018.96
2023-05-15T07:02:54.695Z,100015.51
2023-05-15T07:06:21.401Z,100009.19
2023-05-15T07:09:50.531Z,100002.26
2023-05-15T07:13:18.092Z,99996.83
2023-05-15T07:16:45.405Z,99993.77
2023-05-15T07:20:13.742Z,99989.23
2023-05-15T07:23:41.093Z,99982.95
2023-05-15T07:27:10.551Z,99978.93
2023-05-15T07:30:37.504Z,99970.09
2023-05-15T07:34:04.207Z,99968.35
2023-05-15T07:37:31.706Z,99961.17
2023-05-15T07:40:59.378Z,99952.45
2023-05-15T07:44:25.925Z,99947.41
2023-05-15T07:47:53.137Z,99943.56
2023-05-15T07:51:21.078Z,99938.09
2023-05-15T07:54:47.996Z,99932.55
2023-05-15T07:58:14.884Z,99930.69
2023-05-15T08:01:41.830Z,99924.39
2023-05-15T08:05:12.456Z,99914.21
2023-05-15T08:08:39.491Z,99908.64
2023-05-15T08:12:21.427Z,99899.24
2023-05-15T08:15:48.402Z,99886.04
2023-05-15T08:19:15.485Z,99878.58
2023-05-15T08:22:42.660Z,99872.85
2023-05-15T08:26:09.353Z,99869.03
2023-05-15T08:29:39.442Z,99863.90
2023-05-15T08:33:07.404Z,99852.11
2023-05-15T08:36:36.615Z,99841.02
2023-05-15T08:40:08.380Z,99837.50
2023-05-15T08:43:39.365Z,99834.44
2023-05-15T08:47:10.071Z,99829.02
2023-05-15T08:50:40.058Z,99829.45
2023-05-15T08:54:07.640Z,99822.86
2023-05-15T08:57:36.391Z,99816.27
2023-05-15T09:01:03.899Z,99813.96
2023-05-15T09:04:31.058Z,99811.55
2023-05-15T09:07:58.552Z,99806.80
2023-05-15T09:11:28.132Z,99812.98
2023-05-15T09:15:09.339Z,99811.14
2023-05-15T09:18:37.112Z,99806.77
2023-05-15T09:22:18.396Z,99807.86
2023-05-15T09:25:46.326Z,99803.97
2023-05-15T09:29:14.375Z,99801.40
2023-05-15T09:32:47.393Z,99798.64
2023-05-15T09:36:24.799Z,99795.08
2023-05-15T09:39:52.276Z,99797.36
2023-05-15T09:43:19.382Z,99793.98
2023-05-15T09:46:47.026Z,99790.48
2023-05-15T09:50:14.521Z,99787.09
2023-05-15T09:53:41.280Z,99785.81
2023-05-15T09:57:15.672Z,99786.82
2023-05-15T10:00:47.996Z,99784.36
2023-05-15T10:04:17.656Z,99780.39
2023-05-15T10:07:44.808Z,99775.52
2023-05-15T10:11:11.941Z,99773.88
2023-05-15T10:14:39.638Z,99771.33
2023-05-15T10:18:07.975Z,99765.25
2023-05-15T10:21:36.983Z,99763.99
2023-05-15T10:25:10.640Z,99762.48
2023-05-15T10:28:39.599Z,99759.79
2023-05-15T10:32:08.028Z,99753.95
2023-05-15T10:35:35.386Z,99757.87
2023-05-15T10:39:04.536Z,99751.75
2023-05-15T10:42:32.682Z,99752.87
2023-05-15T10:46:00.596Z,99744.96
2023-05-15T10:49:30.834Z,99743.15
2023-05-15T10:53:00.214Z,99744.89
2023-05-15T10:56:33.155Z,99744.29
2023-05-15T11:00:01.719Z,99741.49
2023-05-15T11:03:49.164Z,99739.58
2023-05-15T11:07:18.512Z,99743.30
2023-05-15T11:10:45.562Z,99738.30
2023-05-15T11:14:18.867Z,99732.31
2023-05-15T11:18:05.683Z,99735.64
2023-05-15T11:21:46.496Z,99729.30
2023-05-15T11:25:14.783Z,99725.91
2023-05-15T11:28:47.541Z,99723.27
2023-05-15T11:32:41.606Z,99719.75
2023-05-15T11:36:10.315Z,99715.40
2023-05-15T11:39:42.456Z,99707.27
2023-05-15T11:43:21.996Z,99704.16
2023-05-15T11:46:50.200Z,99698.92
2023-05-15T11:50:17.514Z,99696.80
2023-05-15T11:53:45.127Z,99690.39
2023-05-15T11:57:12.036Z,99683.79
2023-05-15T12:00:38.831Z,99682.67
2023-05-15T12:04:13.611Z,99682.02
2023-05-15T12:07:44.659Z,99676.84
2023-05-15T12:11:14.120Z,99674.27
2023-05-15T12:14:42.683Z,99670.04
2023-05-15T12:18:10.823Z,99667.94
2023-05-15T12:21:47.472Z,99661.77
2023-05-15T12:25:18.952Z,99651.70
2023-05-15T12:28:47.098Z,99650.52
2023-05-15T12:32:15.121Z,99645.81
2023-05-15T12:35:46.478Z,99638.08
2023-05-15T12:39:14.284Z,99635.97
2023-05-15T12:42:47.828Z,99633.73
2023-05-15T12:46:17.024Z,99629.93
2023-05-15T12:49:47.117Z,99620.64
2023-05-15T12:53:17.147Z,99617.16
2023-05-15T12:56:44.504Z,99610.09
2023-05-15T13:00:15.250Z,99603.73
2023-05-15T13:03:56.257Z,99600.20
2023-05-15T13:07:24.892Z,99595.33
2023-05-15T13:11:02.290Z,99589.05
2023-05-15T13:14:33.489Z,99579.70
2023-05-15T13:18:04.447Z,99571.36
2023-05-15T13:21:32.242Z,99568.86
2023-05-15T13:25:00.213Z,99563.77
2023-05-15T13:28:27.640Z,99556.48
2023-05-15T13:31:54.897Z,99551.15
2023-05-15T13:35:23.824Z,99551.55
2023-05-15T13:38:50.688Z,99545.14
2023-05-15T13:42:18.727Z,99540.34
2023-05-15T13:45:45.948Z,99542.22
2023-05-15T13:49:12.911Z,99539.42
2023-05-15T13:52:40.233Z,99538.23
2023-05-15T13:56:07.776Z,99534.51
2023-05-15T13:59:34.936Z,99529.70
2023-05-15T14:03:01.968Z,99527.28
2023-05-15T14:06:29.578Z,99525.98
2023-05-15T14:09:56.712Z,99524.55
2023-05-15T14:13:24.554Z,99523.98
2023-05-15T14:16:51.328Z,99518.93
2023-05-15T14:20:18.002Z,99513.87
2023-05-15T14:23:45.162Z,99512.92
2023-05-15T14:27:12.584Z,99514.17
2023-05-15T14:30:39.973Z,99517.61
2023-05-15T14:34:08.109Z,99512.02
2023-05-15T14:37:37.980Z,99507.80
2023-05-15T14:41:10.415Z,99506.77
2023-05-15T14:44:38.395Z,99506.46
2023-05-15T14:48:07.820Z,99502.66
2023-05-15T14:51:35.042Z,99498.66
2023-05-15T14:58:33.534Z,99495.81
2023-05-15T15:02:01.474Z,99493.52
2023-05-15T15:05:29.035Z,99488.73
2023-05-15T15:08:56.175Z,99484.61
2023-05-15T15:12:23.095Z,99486.72
2023-05-15T15:15:53.961Z,99483.71
2023-05-15T15:19:25.500Z,99478.04
2023-05-15T15:22:52.821Z,99472.63
2023-05-15T15:26:20.124Z,99470.18
2023-05-15T15:29:47.158Z,99470.10
2023-05-15T15:33:14.554Z,99466.68
2023-05-15T15:36:43.960Z,99462.42
2023-05-15T15:40:12.886Z,99460.39
2023-05-15T15:43:47.408Z,99462.38
2023-05-15T15:47:14.878Z,99456.28
2023-05-15T15:50:42.333Z,99453.39
2023-05-15T15:54:09.646Z,99446.67
2023-05-15T15:57:36.803Z,99441.02
2023-05-15T16:01:04.520Z,99442.54
2023-05-15T16:04:32.064Z,99438.73
2023-05-15T16:07:58.686Z,99435.52
2023-05-15T16:11:26.178Z,99435.08
2023-05-15T16:14:53.265Z,99431.85
2023-05-15T16:18:20.254Z,99432.18
2023-05-15T16:21:51.738Z,99427.55
2023-05-15T16:25:19.441Z,99427.06
2023-05-15T16:28:47.217Z,99423.86
2023-05-15T16:32:15.389Z,99422.79
2023-05-15T16:35:45.703Z,99419.70
2023-05-15T16:39:13.420Z,99414.41
2023-05-15T16:42:41.959Z,99409.21
2023-05-15T16:46:10.015Z,99412.06
2023-05-15T16:49:37.439Z,99405.88
2023-05-15T16:53:05.794Z,99409.50
2023-05-15T16:56:38.695Z,99401.64
2023-05-15T17:00:10.574Z,99397.66
2023-05-15T17:03:38.336Z,99395.73
2023-05-15T17:07:05.819Z,99398.27
2023-05-15T17:10:32.769Z,99395.27
2023-05-15T17:13:59.963Z,99394.41
2023-05-15T17:17:27.462Z,99395.98
2023-05-15T17:20:54.448Z,99398.39
2023-05-15T17:24:21.473Z,99396.73
2023-05-15T17:27:48.815Z,99392.79
2023-05-15T17:31:15.676Z,99390.13
2023-05-15T17:34:43.093Z,99390.39
2023-05-15T17:38:10.072Z,99383.29
2023-05-15T17:41:37.261Z,99388.41
2023-05-15T17:45:04.036Z,99389.55
2023-05-15T17:48:36.555Z,99390.14
2023-05-15T17:52:09.574Z,99391.21
2023-05-15T17:55:36.941Z,99389.98
2023-05-15T17:59:04.700Z,99394.60
2023-05-15T18:02:32.199Z,99389.98
2023-05-15T18:06:00.343Z,99387.13
2023-05-15T18:09:28.043Z,99384.66
2023-05-15T18:12:56.430Z,99381.83
2023-05-15T18:16:24.413Z,99385.91
2023-05-15T18:19:54.110Z,99390.52
2023-05-15T18:23:21.877Z,99390.45
2023-05-15T18:26:50.155Z,99395.23
2023-05-15T18:30:19.009Z,99397.77
2023-05-15T18:33:46.325Z,99402.50
2023-05-15T18:37:20.016Z,99398.28
2023-05-15T18:40:49.674Z,99402.30
2023-05-15T18:44:17.986Z,99405.55
2023-05-15T18:47:47.478Z,99406.64
2023-05-15T18:51:16.848Z,99404.46
2023-05-15T18:54:46.968Z,99405.25
2023-05-15T18:58:14.706Z,99409.31
2023-05-15T19:01:42.133Z,99409.59
2023-05-15T19:05:10.291Z,99408.92
2023-05-15T19:08:38.576Z,99412.86
2023-05-15T19:12:05.926Z,99414.99
2023-05-15T19:15:33.975Z,99417.45
2023-05-15T19:19:04.579Z,99415.81
2023-05-15T19:22:32.497Z,99415.86
2023-05-15T19:26:12.731Z,99412.33
2023-05-15T19:29:42.765Z,99411.70
2023-05-15T19:33:13.658Z,99407.27
2023-05-15T19:36:40.911Z,99409.63
2023-05-15T19:40:12.140Z,99404.46
2023-05-15T19:43:40.093Z,99404.59
2023-05-15T19:47:13.858Z,99405.27
2023-05-15T19:50:42.950Z,99403.27
2023-05-15T19:54:14.448Z,99401.38
2023-05-15T19:57:42.975Z,99400.04
2023-05-15T20:01:11.111Z,99396.06
2023-05-15T20:04:39.307Z,99395.91
2023-05-15T20:08:06.735Z,99396.92
2023-05-15T20:11:36.450Z,99389.94
2023-05-15T20:15:04.216Z,99390.52
2023-05-15T20:18:36.500Z,99390.44
2023-05-15T20:22:04.832Z,99392.89
2023-05-15T20:25:35.943Z,99390.55
2023-05-15T20:29:07.282Z,99391.83
2023-05-15T20:32:36.574Z,99389.89
2023-05-15T20:36:13.748Z,99391.66
2023-05-15T20:39:42.897Z,99403.33
2023-05-15T20:43:12.890Z,99402.55
2023-05-15T20:46:43.986Z,99403.05
2023-05-15T20:50:15.035Z,99403.17
2023-05-15T20:53:43.336Z,99408.02
2023-05-15T20:57:11.034Z,99413.09
2023-05-15T21:00:38.762Z,99418.02
2023-05-15T21:04:06.559Z,99421.56
2023-05-15T21:07:35.610Z,99424.88
2023-05-15T21:11:03.674Z,99424.63
2023-05-15T21:14:30.576Z,99423.13
2023-05-15T21:17:57.576Z,99416.73
2023-05-15T21:21:24.991Z,99416.39
2023-05-15T21:24:52.065Z,99414.30
2023-05-15T21:28:18.840Z,99418.60
2023-05-15T21:31:45.884Z,99420.20
2023-05-15T21:35:14.354Z,99420.80
2023-05-15T21:38:41.407Z,99423.48
2023-05-15T21:42:08.756Z,99429.84
2023-05-15T21:45:37.372Z,99435.53
2023-05-15T21:49:04.590Z,99439.25
2023-05-15T21:52:31.318Z,99436.54
2023-05-15T21:56:02.183Z,99438.41
2023-05-15T21:59:30.432Z,99436.88
2023-05-15T22:02:57.979Z,99437.03
2023-05-15T22:06:25.372Z,99437.02
2023-05-15T22:09:53.439Z,99436.45
2023-05-15T22:13:20.379Z,99437.08
2023-05-15T22:16:47.501Z,99438.66
2023-05-15T22:20:18.772Z,99439.66
2023-05-15T22:23:46.376Z,99450.50
2023-05-15T22:27:15.419Z,99444.56
2023-05-15T22:30:47.082Z,99444.41
2023-05-15T22:34:14.618Z,99445.70
2023-05-15T22:37:42.828Z,99447.19
2023-05-15T22:41:10.602Z,99447.20
2023-05-15T22:44:37.463Z,99446.68
2023-05-15T22:48:05.982Z,99448.26
2023-05-15T22:51:34.628Z,99444.61
2023-05-15T22:55:01.588Z,99439.00
2023-05-15T22:58:29.454Z,99438.20
2023-05-15T23:01:55.851Z,99435.59
2023-05-15T23:05:25.136Z,99432.23
2023-05-15T23:08:51.852Z,99430.46
2023-05-15T23:12:19.161Z,99430.33
2023-05-15T23:15:46.783Z,99431.78
2023-05-15T23:19:13.898Z,99433.48
2023-05-15T23:22:40.800Z,99434.60
2023-05-15T23:26:07.545Z,99437.05
2023-05-15T23:29:35.743Z,99435.34
2023-05-15T23:33:02.990Z,99436.80
2023-05-15T23:36:31.002Z,99437.05
2023-05-15T23:39:57.870Z,99433.30
2023-05-15T23:43:25.164Z,99430.36
2023-05-15T23:46:51.901Z,99430.77
2023-05-15T23:50:21.483Z,99428.51
2023-05-15T23:53:48.902Z,99426.95
2023-05-15T23:57:21.099Z,99428.80
